Terminal Aerodrome Forecast
Issued by NWS La Crosse, WI

Home | Current Version | Previous Version | Text Only | Print | Product List | Glossary On
Versions: 1 2 3 4 5 6 7 8 9 10 11 12 13 14 15 16 17 18 19 20 21 22 23 24 25 26 27 28 29 30 31 32 33 34 35 36
000
FTUS43 KARX 192320
TAFLSE
TAF
KLSE 192320Z 2000/2024 20011KT P6SM FEW070
     FM200700 23006KT P6SM SCT050 BKN100
     FM201100 25008KT P6SM BKN030
     FM201300 26010KT P6SM BKN012
     FM201800 30010KT P6SM BKN050=

USA.gov is the U.S. government's official web portal to all federal, state and local government web resources and services.